This is the latest recevied weather packets stored in our database for station/object WA1TYB-13. If no packets are shown the sender has not sent any weather packets the latest 10 day(s).
| Time | Temp. | Humidity | Pressure | Rain* | Wind** | Luminosity | Snow |
|---|---|---|---|---|---|---|---|
| 1777780781 | 12.22° C | 49% | 1017.2 hPa | 0 mm | - | 0 W/m² | - |
| 1777780478 | 12.22° C | 49% | 1017 hPa | 0 mm | - | 0 W/m² | - |
| 1777780176 | 12.22° C | 49% | 1016.9 hPa | 0 mm | - | 0 W/m² | - |
| 1777779873 | 12.22° C | 51% | 1017 hPa | 0 mm | - | 0 W/m² | - |
| 1777779570 | 12.22° C | 52% | 1016.9 hPa | 0 mm | - | 0 W/m² | - |
| 1777779267 | 12.78° C | 50% | 1016.8 hPa | 0 mm | - | 0 W/m² | - |
| 1777778965 | 13.89° C | 45% | 1016.9 hPa | 0 mm | - | 0 W/m² | - |
| 1777778664 | 15° C | 40% | 1016.6 hPa | 0 mm | - | 0 W/m² | - |
| 1777778361 | 15° C | 39% | 1016.5 hPa | 0 mm | - | 0 W/m² | - |
| 1777778058 | 16.11° C | 38% | 1016.6 hPa | 0 mm | - | 0 W/m² | - |
| 1777777755 | 16.11° C | 37% | 1016.7 hPa | 0 mm | - | 0 W/m² | - |
| 1777777451 | 15.56° C | 38% | 1016.6 hPa | 0 mm | - | 0 W/m² | - |
| 1777777148 | 15° C | 40% | 1016.5 hPa | 0 mm | - | 0 W/m² | - |
| 1777776845 | 15° C | 40% | 1016.3 hPa | 0 mm | - | 0 W/m² | - |
| 1777776542 | 15° C | 41% | 1016.3 hPa | 0 mm | - | 0 W/m² | - |
| 1777776239 | 15° C | 41% | 1016.1 hPa | 0 mm | - | 0 W/m² | - |
| 1777775936 | 15° C | 39% | 1016.3 hPa | 0 mm | - | 1 W/m² | - |
| 1777775633 | 15.56° C | 39% | 1016.1 hPa | 0 mm | - | 3 W/m² | - |
| 1777775329 | 16.11° C | 38% | 1016.1 hPa | 0 mm | - | 6 W/m² | - |
| 1777775024 | 16.67° C | 35% | 1016 hPa | 0 mm | - | 9 W/m² | - |
| 1777774721 | 17.78° C | 34% | 1016.1 hPa | 0 mm | - | 13 W/m² | - |
| 1777774417 | 17.78° C | 33% | 1016.2 hPa | 0 mm | - | 17 W/m² | - |
| 1777774114 | 18.33° C | 33% | 1016 hPa | 0 mm | - | 22 W/m² | - |
| 1777773813 | 18.33° C | 32% | 1016.2 hPa | 0 mm | - | 26 W/m² | - |
| 1777773508 | 18.33° C | 34% | 1016.1 hPa | 0 mm | - | 32 W/m² | - |
* Rain latest hour (hover to see other rain measurements)
** Current wind speed in m/s (hover to see current wind gust speed)